sensor_id;sensor_type;location;lat;lon;timestamp;P1;durP1;ratioP1;P2;durP2;ratioP2
7573;SDS011;3828;48.922;9.116;2022-10-16T00:01:04;1.40;;;1.30;;
7573;SDS011;3828;48.922;9.116;2022-10-16T00:03:31;1.50;;;1.40;;
7573;SDS011;3828;48.922;9.116;2022-10-16T00:05:58;2.40;;;1.87;;
7573;SDS011;3828;48.922;9.116;2022-10-16T00:08:27;1.83;;;1.73;;
7573;SDS011;3828;48.922;9.116;2022-10-16T00:10:58;1.50;;;1.40;;
7573;SDS011;3828;48.922;9.116;2022-10-16T00:13:25;1.40;;;1.30;;
7573;SDS011;3828;48.922;9.116;2022-10-16T00:15:54;1.17;;;1.17;;
7573;SDS011;3828;48.922;9.116;2022-10-16T00:18:22;2.87;;;1.60;;
7573;SDS011;3828;48.922;9.116;2022-10-16T00:20:48;2.40;;;1.40;;
7573;SDS011;3828;48.922;9.116;2022-10-16T00:23:15;1.50;;;1.40;;
7573;SDS011;3828;48.922;9.116;2022-10-16T00:25:43;1.43;;;1.33;;
7573;SDS011;3828;48.922;9.116;2022-10-16T00:28:10;9.80;;;1.53;;
7573;SDS011;3828;48.922;9.116;2022-10-16T00:30:37;1.60;;;1.50;;
7573;SDS011;3828;48.922;9.116;2022-10-16T00:33:04;1.90;;;1.23;;
7573;SDS011;3828;48.922;9.116;2022-10-16T00:35:31;1.37;;;1.27;;
7573;SDS011;3828;48.922;9.116;2022-10-16T00:37:58;3.30;;;1.60;;
7573;SDS011;3828;48.922;9.116;2022-10-16T00:40:24;2.10;;;1.40;;
7573;SDS011;3828;48.922;9.116;2022-10-16T00:42:54;1.43;;;1.33;;
7573;SDS011;3828;48.922;9.116;2022-10-16T00:45:21;1.17;;;1.10;;
7573;SDS011;3828;48.922;9.116;2022-10-16T00:47:48;1.40;;;1.30;;
7573;SDS011;3828;48.922;9.116;2022-10-16T00:50:18;6.20;;;1.70;;
7573;SDS011;3828;48.922;9.116;2022-10-16T00:52:50;2.60;;;1.30;;
7573;SDS011;3828;48.922;9.116;2022-10-16T00:55:18;2.20;;;1.13;;
7573;SDS011;3828;48.922;9.116;2022-10-16T00:57:45;2.20;;;1.30;;
7573;SDS011;3828;48.922;9.116;2022-10-16T01:00:16;1.63;;;1.53;;
7573;SDS011;3828;48.922;9.116;2022-10-16T01:02:44;2.30;;;1.20;;
7573;SDS011;3828;48.922;9.116;2022-10-16T01:05:17;1.37;;;1.27;;
7573;SDS011;3828;48.922;9.116;2022-10-16T01:07:45;2.73;;;1.57;;
7573;SDS011;3828;48.922;9.116;2022-10-16T01:10:22;2.90;;;1.67;;
7573;SDS011;3828;48.922;9.116;2022-10-16T01:12:54;1.87;;;1.47;;
7573;SDS011;3828;48.922;9.116;2022-10-16T01:15:29;1.67;;;1.33;;
7573;SDS011;3828;48.922;9.116;2022-10-16T01:18:00;3.27;;;1.63;;
7573;SDS011;3828;48.922;9.116;2022-10-16T01:20:33;5.00;;;1.30;;
7573;SDS011;3828;48.922;9.116;2022-10-16T01:23:06;4.13;;;1.80;;
7573;SDS011;3828;48.922;9.116;2022-10-16T01:25:57;4.00;;;1.60;;
7573;SDS011;3828;48.922;9.116;2022-10-16T01:28:38;4.00;;;1.70;;
7573;SDS011;3828;48.922;9.116;2022-10-16T01:31:08;1.80;;;1.27;;
7573;SDS011;3828;48.922;9.116;2022-10-16T01:33:39;2.87;;;1.23;;
7573;SDS011;3828;48.922;9.116;2022-10-16T01:36:10;1.37;;;1.00;;
7573;SDS011;3828;48.922;9.116;2022-10-16T01:38:41;1.30;;;1.20;;
7573;SDS011;3828;48.922;9.116;2022-10-16T01:41:13;3.23;;;1.43;;
7573;SDS011;3828;48.922;9.116;2022-10-16T01:43:45;2.70;;;1.50;;
7573;SDS011;3828;48.922;9.116;2022-10-16T01:46:16;1.93;;;1.53;;
7573;SDS011;3828;48.922;9.116;2022-10-16T01:48:46;1.93;;;1.40;;
7573;SDS011;3828;48.922;9.116;2022-10-16T01:51:14;1.43;;;1.33;;
7573;SDS011;3828;48.922;9.116;2022-10-16T01:53:45;1.23;;;1.13;;
7573;SDS011;3828;48.922;9.116;2022-10-16T01:56:15;1.23;;;1.20;;
7573;SDS011;3828;48.922;9.116;2022-10-16T01:58:47;1.33;;;1.20;;
7573;SDS011;3828;48.922;9.116;2022-10-16T02:01:17;1.60;;;1.50;;
7573;SDS011;3828;48.922;9.116;2022-10-16T02:03:46;1.50;;;1.40;;
7573;SDS011;3828;48.922;9.116;2022-10-16T02:06:18;1.30;;;1.20;;
7573;SDS011;3828;48.922;9.116;2022-10-16T02:08:45;2.53;;;1.53;;
7573;SDS011;3828;48.922;9.116;2022-10-16T02:11:12;2.07;;;1.50;;
7573;SDS011;3828;48.922;9.116;2022-10-16T02:13:41;1.70;;;1.30;;
7573;SDS011;3828;48.922;9.116;2022-10-16T02:16:12;1.57;;;1.47;;
7573;SDS011;3828;48.922;9.116;2022-10-16T02:18:40;1.77;;;1.47;;
7573;SDS011;3828;48.922;9.116;2022-10-16T02:21:10;1.37;;;1.27;;
7573;SDS011;3828;48.922;9.116;2022-10-16T02:23:44;1.70;;;1.60;;
7573;SDS011;3828;48.922;9.116;2022-10-16T02:26:20;1.67;;;1.30;;
7573;SDS011;3828;48.922;9.116;2022-10-16T02:28:55;2.97;;;1.70;;
7573;SDS011;3828;48.922;9.116;2022-10-16T02:31:28;2.50;;;1.40;;
7573;SDS011;3828;48.922;9.116;2022-10-16T02:33:59;6.87;;;1.50;;
7573;SDS011;3828;48.922;9.116;2022-10-16T02:36:27;1.33;;;1.23;;
7573;SDS011;3828;48.922;9.116;2022-10-16T02:38:54;1.63;;;1.50;;
7573;SDS011;3828;48.922;9.116;2022-10-16T02:41:21;1.63;;;1.40;;
7573;SDS011;3828;48.922;9.116;2022-10-16T02:43:49;3.60;;;2.23;;
7573;SDS011;3828;48.922;9.116;2022-10-16T02:46:16;1.70;;;1.50;;
7573;SDS011;3828;48.922;9.116;2022-10-16T02:48:45;1.63;;;1.53;;
7573;SDS011;3828;48.922;9.116;2022-10-16T02:51:12;3.33;;;1.50;;
7573;SDS011;3828;48.922;9.116;2022-10-16T02:53:39;1.27;;;1.27;;
7573;SDS011;3828;48.922;9.116;2022-10-16T02:56:06;1.80;;;1.70;;
7573;SDS011;3828;48.922;9.116;2022-10-16T02:58:33;3.47;;;1.43;;
7573;SDS011;3828;48.922;9.116;2022-10-16T03:01:00;1.73;;;1.63;;
7573;SDS011;3828;48.922;9.116;2022-10-16T03:03:27;1.90;;;1.57;;
7573;SDS011;3828;48.922;9.116;2022-10-16T03:05:55;2.00;;;1.40;;
7573;SDS011;3828;48.922;9.116;2022-10-16T03:08:21;1.70;;;1.60;;
7573;SDS011;3828;48.922;9.116;2022-10-16T03:10:50;1.53;;;1.43;;
7573;SDS011;3828;48.922;9.116;2022-10-16T03:13:17;1.67;;;1.57;;
7573;SDS011;3828;48.922;9.116;2022-10-16T03:15:45;3.30;;;1.40;;
7573;SDS011;3828;48.922;9.116;2022-10-16T03:18:12;1.70;;;1.40;;
7573;SDS011;3828;48.922;9.116;2022-10-16T03:20:39;1.47;;;1.40;;
7573;SDS011;3828;48.922;9.116;2022-10-16T03:23:07;1.80;;;1.70;;
7573;SDS011;3828;48.922;9.116;2022-10-16T03:25:34;1.83;;;1.63;;
7573;SDS011;3828;48.922;9.116;2022-10-16T03:28:01;2.27;;;1.73;;
7573;SDS011;3828;48.922;9.116;2022-10-16T03:30:28;3.63;;;2.00;;
7573;SDS011;3828;48.922;9.116;2022-10-16T03:32:55;1.80;;;1.70;;
7573;SDS011;3828;48.922;9.116;2022-10-16T03:35:22;2.77;;;1.80;;
7573;SDS011;3828;48.922;9.116;2022-10-16T03:37:50;3.13;;;1.87;;
7573;SDS011;3828;48.922;9.116;2022-10-16T03:40:18;2.10;;;1.90;;
7573;SDS011;3828;48.922;9.116;2022-10-16T03:42:45;1.77;;;1.67;;
7573;SDS011;3828;48.922;9.116;2022-10-16T03:45:12;5.20;;;1.83;;
7573;SDS011;3828;48.922;9.116;2022-10-16T03:47:39;3.37;;;1.80;;
7573;SDS011;3828;48.922;9.116;2022-10-16T03:50:06;2.23;;;1.83;;
7573;SDS011;3828;48.922;9.116;2022-10-16T03:52:34;3.03;;;1.70;;
7573;SDS011;3828;48.922;9.116;2022-10-16T03:55:00;2.47;;;1.60;;
7573;SDS011;3828;48.922;9.116;2022-10-16T03:57:28;1.90;;;1.70;;
7573;SDS011;3828;48.922;9.116;2022-10-16T03:59:55;1.70;;;1.60;;
7573;SDS011;3828;48.922;9.116;2022-10-16T04:02:22;1.87;;;1.77;;
7573;SDS011;3828;48.922;9.116;2022-10-16T04:04:49;1.73;;;1.63;;
7573;SDS011;3828;48.922;9.116;2022-10-16T04:07:15;1.90;;;1.80;;
7573;SDS011;3828;48.922;9.116;2022-10-16T04:09:42;1.67;;;1.57;;
7573;SDS011;3828;48.922;9.116;2022-10-16T04:12:09;1.90;;;1.80;;
7573;SDS011;3828;48.922;9.116;2022-10-16T04:14:37;2.53;;;1.97;;
7573;SDS011;3828;48.922;9.116;2022-10-16T04:17:04;1.87;;;1.53;;
7573;SDS011;3828;48.922;9.116;2022-10-16T04:19:31;2.00;;;1.70;;
7573;SDS011;3828;48.922;9.116;2022-10-16T04:21:57;2.03;;;1.73;;
7573;SDS011;3828;48.922;9.116;2022-10-16T04:24:24;2.20;;;1.77;;
7573;SDS011;3828;48.922;9.116;2022-10-16T04:26:51;2.00;;;1.50;;
7573;SDS011;3828;48.922;9.116;2022-10-16T04:29:17;5.23;;;3.23;;
7573;SDS011;3828;48.922;9.116;2022-10-16T04:31:46;2.10;;;1.50;;
7573;SDS011;3828;48.922;9.116;2022-10-16T04:34:13;2.17;;;1.83;;
7573;SDS011;3828;48.922;9.116;2022-10-16T04:36:40;1.77;;;1.67;;
7573;SDS011;3828;48.922;9.116;2022-10-16T04:39:06;1.70;;;1.60;;
7573;SDS011;3828;48.922;9.116;2022-10-16T04:41:33;1.73;;;1.63;;
7573;SDS011;3828;48.922;9.116;2022-10-16T04:44:00;2.77;;;1.87;;
7573;SDS011;3828;48.922;9.116;2022-10-16T04:46:27;2.13;;;1.67;;
7573;SDS011;3828;48.922;9.116;2022-10-16T04:48:55;1.70;;;1.60;;
7573;SDS011;3828;48.922;9.116;2022-10-16T04:51:22;1.90;;;1.80;;
7573;SDS011;3828;48.922;9.116;2022-10-16T04:53:50;1.73;;;1.63;;
7573;SDS011;3828;48.922;9.116;2022-10-16T04:56:17;5.17;;;2.07;;
7573;SDS011;3828;48.922;9.116;2022-10-16T04:58:44;1.53;;;1.43;;
7573;SDS011;3828;48.922;9.116;2022-10-16T05:01:11;1.97;;;1.70;;
7573;SDS011;3828;48.922;9.116;2022-10-16T05:03:38;5.30;;;1.53;;
7573;SDS011;3828;48.922;9.116;2022-10-16T05:06:06;1.93;;;1.50;;
7573;SDS011;3828;48.922;9.116;2022-10-16T05:08:33;3.63;;;1.70;;
7573;SDS011;3828;48.922;9.116;2022-10-16T05:10:59;2.37;;;1.90;;
7573;SDS011;3828;48.922;9.116;2022-10-16T05:13:27;4.23;;;1.90;;
7573;SDS011;3828;48.922;9.116;2022-10-16T05:15:54;3.30;;;1.80;;
7573;SDS011;3828;48.922;9.116;2022-10-16T05:18:20;1.97;;;1.87;;
7573;SDS011;3828;48.922;9.116;2022-10-16T05:20:47;1.80;;;1.70;;
7573;SDS011;3828;48.922;9.116;2022-10-16T05:23:15;1.77;;;1.67;;
7573;SDS011;3828;48.922;9.116;2022-10-16T05:25:42;2.27;;;2.17;;
7573;SDS011;3828;48.922;9.116;2022-10-16T05:28:09;1.90;;;1.80;;
7573;SDS011;3828;48.922;9.116;2022-10-16T05:30:36;2.83;;;2.30;;
7573;SDS011;3828;48.922;9.116;2022-10-16T05:33:04;3.23;;;2.47;;
7573;SDS011;3828;48.922;9.116;2022-10-16T05:35:31;2.90;;;2.60;;
7573;SDS011;3828;48.922;9.116;2022-10-16T05:37:58;3.40;;;3.10;;
7573;SDS011;3828;48.922;9.116;2022-10-16T05:40:26;3.70;;;3.30;;
7573;SDS011;3828;48.922;9.116;2022-10-16T05:42:54;3.60;;;3.30;;
7573;SDS011;3828;48.922;9.116;2022-10-16T05:45:21;3.80;;;3.40;;
7573;SDS011;3828;48.922;9.116;2022-10-16T05:47:48;4.20;;;3.47;;
7573;SDS011;3828;48.922;9.116;2022-10-16T05:50:15;5.37;;;2.67;;
7573;SDS011;3828;48.922;9.116;2022-10-16T05:52:42;2.63;;;2.50;;
7573;SDS011;3828;48.922;9.116;2022-10-16T05:55:09;4.90;;;2.77;;
7573;SDS011;3828;48.922;9.116;2022-10-16T05:57:37;4.57;;;2.97;;
7573;SDS011;3828;48.922;9.116;2022-10-16T06:00:04;2.50;;;2.40;;
7573;SDS011;3828;48.922;9.116;2022-10-16T06:02:32;4.13;;;2.60;;
7573;SDS011;3828;48.922;9.116;2022-10-16T06:04:59;3.90;;;2.70;;
7573;SDS011;3828;48.922;9.116;2022-10-16T06:07:25;3.63;;;2.80;;
7573;SDS011;3828;48.922;9.116;2022-10-16T06:09:52;2.30;;;1.90;;
7573;SDS011;3828;48.922;9.116;2022-10-16T06:12:20;2.40;;;2.20;;
7573;SDS011;3828;48.922;9.116;2022-10-16T06:14:50;4.43;;;3.30;;
7573;SDS011;3828;48.922;9.116;2022-10-16T06:17:18;2.80;;;2.60;;
7573;SDS011;3828;48.922;9.116;2022-10-16T06:19:45;2.90;;;2.70;;
7573;SDS011;3828;48.922;9.116;2022-10-16T06:22:11;2.80;;;2.60;;
7573;SDS011;3828;48.922;9.116;2022-10-16T06:24:39;2.60;;;2.40;;
7573;SDS011;3828;48.922;9.116;2022-10-16T06:27:05;5.00;;;3.33;;
7573;SDS011;3828;48.922;9.116;2022-10-16T06:29:32;2.30;;;2.10;;
7573;SDS011;3828;48.922;9.116;2022-10-16T06:32:00;2.43;;;2.23;;
7573;SDS011;3828;48.922;9.116;2022-10-16T06:34:27;2.47;;;2.27;;
7573;SDS011;3828;48.922;9.116;2022-10-16T06:36:54;4.17;;;2.40;;
7573;SDS011;3828;48.922;9.116;2022-10-16T06:39:20;3.57;;;2.23;;
7573;SDS011;3828;48.922;9.116;2022-10-16T06:41:47;3.83;;;2.30;;
7573;SDS011;3828;48.922;9.116;2022-10-16T06:44:14;2.70;;;2.23;;
7573;SDS011;3828;48.922;9.116;2022-10-16T06:46:41;1.97;;;1.87;;
7573;SDS011;3828;48.922;9.116;2022-10-16T06:49:09;2.90;;;2.27;;
7573;SDS011;3828;48.922;9.116;2022-10-16T06:51:36;2.30;;;2.10;;
7573;SDS011;3828;48.922;9.116;2022-10-16T06:54:05;1.90;;;1.80;;
7573;SDS011;3828;48.922;9.116;2022-10-16T06:56:32;1.93;;;1.83;;
7573;SDS011;3828;48.922;9.116;2022-10-16T06:59:00;2.23;;;1.83;;
7573;SDS011;3828;48.922;9.116;2022-10-16T07:01:28;6.30;;;1.53;;
7573;SDS011;3828;48.922;9.116;2022-10-16T07:03:55;1.87;;;1.77;;
7573;SDS011;3828;48.922;9.116;2022-10-16T07:06:24;1.83;;;1.73;;
7573;SDS011;3828;48.922;9.116;2022-10-16T07:08:52;3.37;;;1.67;;
7573;SDS011;3828;48.922;9.116;2022-10-16T07:11:19;2.70;;;1.73;;
7573;SDS011;3828;48.922;9.116;2022-10-16T07:13:48;2.37;;;2.10;;
7573;SDS011;3828;48.922;9.116;2022-10-16T07:16:16;3.20;;;2.20;;
7573;SDS011;3828;48.922;9.116;2022-10-16T07:18:44;3.10;;;2.30;;
7573;SDS011;3828;48.922;9.116;2022-10-16T07:21:14;2.30;;;2.20;;
7573;SDS011;3828;48.922;9.116;2022-10-16T07:23:43;2.00;;;1.90;;
7573;SDS011;3828;48.922;9.116;2022-10-16T07:26:10;3.13;;;2.30;;
7573;SDS011;3828;48.922;9.116;2022-10-16T07:28:37;3.40;;;2.30;;
7573;SDS011;3828;48.922;9.116;2022-10-16T07:31:05;3.07;;;2.80;;
7573;SDS011;3828;48.922;9.116;2022-10-16T07:33:35;6.53;;;2.63;;
7573;SDS011;3828;48.922;9.116;2022-10-16T07:36:03;3.23;;;2.93;;
7573;SDS011;3828;48.922;9.116;2022-10-16T07:38:31;3.10;;;2.80;;
7573;SDS011;3828;48.922;9.116;2022-10-16T07:40:59;6.03;;;3.10;;
7573;SDS011;3828;48.922;9.116;2022-10-16T07:43:28;3.53;;;2.60;;
7573;SDS011;3828;48.922;9.116;2022-10-16T07:45:56;2.97;;;2.77;;
7573;SDS011;3828;48.922;9.116;2022-10-16T07:48:23;5.57;;;2.30;;
7573;SDS011;3828;48.922;9.116;2022-10-16T07:50:52;1.97;;;1.87;;
7573;SDS011;3828;48.922;9.116;2022-10-16T07:53:22;2.10;;;2.00;;
7573;SDS011;3828;48.922;9.116;2022-10-16T07:55:49;3.03;;;1.80;;
7573;SDS011;3828;48.922;9.116;2022-10-16T07:58:17;2.87;;;2.13;;
7573;SDS011;3828;48.922;9.116;2022-10-16T08:00:44;2.07;;;1.97;;
7573;SDS011;3828;48.922;9.116;2022-10-16T08:03:11;3.40;;;2.30;;
7573;SDS011;3828;48.922;9.116;2022-10-16T08:05:38;3.43;;;2.67;;
7573;SDS011;3828;48.922;9.116;2022-10-16T08:08:05;2.03;;;1.83;;
7573;SDS011;3828;48.922;9.116;2022-10-16T08:10:31;4.03;;;1.60;;
7573;SDS011;3828;48.922;9.116;2022-10-16T08:12:58;1.97;;;1.87;;
7573;SDS011;3828;48.922;9.116;2022-10-16T08:15:27;2.20;;;1.40;;
7573;SDS011;3828;48.922;9.116;2022-10-16T08:17:55;3.00;;;2.80;;
7573;SDS011;3828;48.922;9.116;2022-10-16T08:20:23;4.13;;;2.30;;
7573;SDS011;3828;48.922;9.116;2022-10-16T08:22:51;2.03;;;1.50;;
7573;SDS011;3828;48.922;9.116;2022-10-16T08:25:17;2.50;;;1.40;;
7573;SDS011;3828;48.922;9.116;2022-10-16T08:27:44;1.70;;;1.47;;
7573;SDS011;3828;48.922;9.116;2022-10-16T08:30:11;1.83;;;1.50;;
7573;SDS011;3828;48.922;9.116;2022-10-16T08:32:40;4.47;;;1.60;;
7573;SDS011;3828;48.922;9.116;2022-10-16T08:35:07;1.37;;;1.13;;
7573;SDS011;3828;48.922;9.116;2022-10-16T08:37:35;2.43;;;1.63;;
7573;SDS011;3828;48.922;9.116;2022-10-16T08:40:02;3.17;;;1.30;;
7573;SDS011;3828;48.922;9.116;2022-10-16T08:42:32;2.03;;;1.83;;
7573;SDS011;3828;48.922;9.116;2022-10-16T08:45:15;1.30;;;1.20;;
7573;SDS011;3828;48.922;9.116;2022-10-16T08:47:56;1.97;;;1.83;;
7573;SDS011;3828;48.922;9.116;2022-10-16T08:50:33;5.13;;;3.30;;
7573;SDS011;3828;48.922;9.116;2022-10-16T08:53:03;1.80;;;1.70;;
7573;SDS011;3828;48.922;9.116;2022-10-16T08:55:32;1.50;;;1.40;;
7573;SDS011;3828;48.922;9.116;2022-10-16T08:58:07;3.73;;;1.63;;
7573;SDS011;3828;48.922;9.116;2022-10-16T09:00:38;1.30;;;1.30;;
7573;SDS011;3828;48.922;9.116;2022-10-16T09:03:09;2.40;;;1.47;;
7573;SDS011;3828;48.922;9.116;2022-10-16T09:05:46;3.00;;;1.50;;
7573;SDS011;3828;48.922;9.116;2022-10-16T09:08:26;1.87;;;1.77;;
7573;SDS011;3828;48.922;9.116;2022-10-16T09:11:02;6.83;;;3.20;;
7573;SDS011;3828;48.922;9.116;2022-10-16T09:13:36;4.00;;;1.80;;
7573;SDS011;3828;48.922;9.116;2022-10-16T09:16:12;2.87;;;1.90;;
7573;SDS011;3828;48.922;9.116;2022-10-16T09:18:48;1.97;;;1.87;;
7573;SDS011;3828;48.922;9.116;2022-10-16T09:21:23;1.70;;;1.60;;
7573;SDS011;3828;48.922;9.116;2022-10-16T09:23:53;3.80;;;2.03;;
7573;SDS011;3828;48.922;9.116;2022-10-16T09:26:23;3.37;;;1.70;;
7573;SDS011;3828;48.922;9.116;2022-10-16T09:28:51;4.67;;;1.40;;
7573;SDS011;3828;48.922;9.116;2022-10-16T09:31:19;2.43;;;1.33;;
7573;SDS011;3828;48.922;9.116;2022-10-16T09:33:49;4.00;;;1.43;;
7573;SDS011;3828;48.922;9.116;2022-10-16T09:36:19;1.97;;;1.27;;
7573;SDS011;3828;48.922;9.116;2022-10-16T09:38:47;6.73;;;4.17;;
7573;SDS011;3828;48.922;9.116;2022-10-16T09:41:16;4.63;;;1.53;;
7573;SDS011;3828;48.922;9.116;2022-10-16T09:43:49;2.33;;;1.43;;
7573;SDS011;3828;48.922;9.116;2022-10-16T09:46:29;2.03;;;1.23;;
7573;SDS011;3828;48.922;9.116;2022-10-16T09:49:00;1.53;;;0.93;;
7573;SDS011;3828;48.922;9.116;2022-10-16T09:51:28;1.53;;;1.10;;
7573;SDS011;3828;48.922;9.116;2022-10-16T09:53:56;0.90;;;0.90;;
7573;SDS011;3828;48.922;9.116;2022-10-16T09:56:25;2.00;;;1.20;;
7573;SDS011;3828;48.922;9.116;2022-10-16T09:58:54;2.63;;;1.20;;
7573;SDS011;3828;48.922;9.116;2022-10-16T10:01:22;1.50;;;1.03;;
7573;SDS011;3828;48.922;9.116;2022-10-16T10:03:55;1.60;;;1.10;;
7573;SDS011;3828;48.922;9.116;2022-10-16T10:06:28;2.60;;;1.43;;
7573;SDS011;3828;48.922;9.116;2022-10-16T10:08:59;1.70;;;0.90;;
7573;SDS011;3828;48.922;9.116;2022-10-16T10:11:38;2.50;;;1.20;;
7573;SDS011;3828;48.922;9.116;2022-10-16T10:14:09;2.93;;;1.00;;
7573;SDS011;3828;48.922;9.116;2022-10-16T10:17:06;1.33;;;0.90;;
7573;SDS011;3828;48.922;9.116;2022-10-16T10:19:40;1.00;;;0.90;;
7573;SDS011;3828;48.922;9.116;2022-10-16T10:22:26;2.03;;;1.00;;
7573;SDS011;3828;48.922;9.116;2022-10-16T10:25:00;2.53;;;1.20;;
7573;SDS011;3828;48.922;9.116;2022-10-16T10:28:01;1.17;;;0.90;;
7573;SDS011;3828;48.922;9.116;2022-10-16T10:30:44;1.63;;;1.10;;
7573;SDS011;3828;48.922;9.116;2022-10-16T10:33:18;3.17;;;1.00;;
7573;SDS011;3828;48.922;9.116;2022-10-16T10:35:52;3.40;;;1.30;;
7573;SDS011;3828;48.922;9.116;2022-10-16T10:38:29;0.90;;;0.90;;
7573;SDS011;3828;48.922;9.116;2022-10-16T10:41:18;1.90;;;1.00;;
7573;SDS011;3828;48.922;9.116;2022-10-16T10:44:01;1.53;;;1.00;;
7573;SDS011;3828;48.922;9.116;2022-10-16T10:46:34;0.90;;;0.90;;
7573;SDS011;3828;48.922;9.116;2022-10-16T10:49:09;2.03;;;1.20;;
7573;SDS011;3828;48.922;9.116;2022-10-16T10:51:48;3.07;;;1.30;;
7573;SDS011;3828;48.922;9.116;2022-10-16T10:54:26;1.97;;;1.30;;
7573;SDS011;3828;48.922;9.116;2022-10-16T10:57:02;7.90;;;2.00;;
7573;SDS011;3828;48.922;9.116;2022-10-16T11:02:40;1.90;;;1.30;;
7573;SDS011;3828;48.922;9.116;2022-10-16T11:05:27;2.80;;;1.47;;
7573;SDS011;3828;48.922;9.116;2022-10-16T11:08:00;1.00;;;1.00;;
7573;SDS011;3828;48.922;9.116;2022-10-16T11:10:33;3.10;;;1.50;;
7573;SDS011;3828;48.922;9.116;2022-10-16T11:13:10;2.80;;;2.60;;
7573;SDS011;3828;48.922;9.116;2022-10-16T11:15:48;3.70;;;2.30;;
7573;SDS011;3828;48.922;9.116;2022-10-16T11:18:21;2.30;;;1.00;;
7573;SDS011;3828;48.922;9.116;2022-10-16T11:20:53;1.57;;;1.10;;
7573;SDS011;3828;48.922;9.116;2022-10-16T11:23:25;1.03;;;0.90;;
7573;SDS011;3828;48.922;9.116;2022-10-16T11:25:57;1.90;;;1.30;;
7573;SDS011;3828;48.922;9.116;2022-10-16T11:28:27;2.17;;;0.83;;
7573;SDS011;3828;48.922;9.116;2022-10-16T11:31:02;1.10;;;1.00;;
7573;SDS011;3828;48.922;9.116;2022-10-16T11:33:36;1.53;;;0.80;;
7573;SDS011;3828;48.922;9.116;2022-10-16T11:36:09;3.00;;;1.10;;
7573;SDS011;3828;48.922;9.116;2022-10-16T11:38:41;1.63;;;0.93;;
7573;SDS011;3828;48.922;9.116;2022-10-16T11:41:19;1.47;;;1.10;;
7573;SDS011;3828;48.922;9.116;2022-10-16T11:43:53;2.67;;;1.43;;
7573;SDS011;3828;48.922;9.116;2022-10-16T11:46:32;1.83;;;1.00;;
7573;SDS011;3828;48.922;9.116;2022-10-16T11:49:03;4.77;;;1.10;;
7573;SDS011;3828;48.922;9.116;2022-10-16T11:51:36;1.13;;;0.70;;
7573;SDS011;3828;48.922;9.116;2022-10-16T11:54:08;2.20;;;1.00;;
7573;SDS011;3828;48.922;9.116;2022-10-16T11:56:47;2.70;;;1.10;;
7573;SDS011;3828;48.922;9.116;2022-10-16T11:59:20;1.43;;;1.17;;
7573;SDS011;3828;48.922;9.116;2022-10-16T12:01:55;1.40;;;0.90;;
7573;SDS011;3828;48.922;9.116;2022-10-16T12:04:34;1.20;;;1.10;;
7573;SDS011;3828;48.922;9.116;2022-10-16T12:07:11;2.07;;;1.00;;
7573;SDS011;3828;48.922;9.116;2022-10-16T12:09:41;1.33;;;1.00;;
7573;SDS011;3828;48.922;9.116;2022-10-16T12:14:59;2.50;;;0.80;;
7573;SDS011;3828;48.922;9.116;2022-10-16T12:17:27;1.43;;;0.97;;
7573;SDS011;3828;48.922;9.116;2022-10-16T12:20:12;0.97;;;0.80;;
7573;SDS011;3828;48.922;9.116;2022-10-16T12:22:47;3.43;;;1.10;;
7573;SDS011;3828;48.922;9.116;2022-10-16T12:25:22;3.23;;;0.90;;
7573;SDS011;3828;48.922;9.116;2022-10-16T12:27:58;1.03;;;0.93;;
7573;SDS011;3828;48.922;9.116;2022-10-16T12:30:31;2.70;;;1.33;;
7573;SDS011;3828;48.922;9.116;2022-10-16T12:33:00;4.57;;;1.20;;
7573;SDS011;3828;48.922;9.116;2022-10-16T12:35:30;1.33;;;1.00;;
7573;SDS011;3828;48.922;9.116;2022-10-16T12:38:05;3.33;;;1.10;;
7573;SDS011;3828;48.922;9.116;2022-10-16T12:40:34;1.73;;;0.90;;
7573;SDS011;3828;48.922;9.116;2022-10-16T12:43:23;4.43;;;1.00;;
7573;SDS011;3828;48.922;9.116;2022-10-16T12:45:59;2.70;;;1.00;;
7573;SDS011;3828;48.922;9.116;2022-10-16T12:48:27;0.87;;;0.87;;
7573;SDS011;3828;48.922;9.116;2022-10-16T12:50:55;2.47;;;0.90;;
7573;SDS011;3828;48.922;9.116;2022-10-16T12:53:22;1.20;;;1.10;;
7573;SDS011;3828;48.922;9.116;2022-10-16T12:55:52;1.70;;;1.20;;
7573;SDS011;3828;48.922;9.116;2022-10-16T12:58:37;1.37;;;0.97;;
7573;SDS011;3828;48.922;9.116;2022-10-16T13:01:22;1.70;;;0.90;;
7573;SDS011;3828;48.922;9.116;2022-10-16T13:04:22;1.90;;;0.90;;
7573;SDS011;3828;48.922;9.116;2022-10-16T13:06:59;1.13;;;1.00;;
7573;SDS011;3828;48.922;9.116;2022-10-16T13:09:44;1.10;;;1.03;;
7573;SDS011;3828;48.922;9.116;2022-10-16T13:15:30;0.80;;;0.80;;
7573;SDS011;3828;48.922;9.116;2022-10-16T13:18:15;1.27;;;1.10;;
7573;SDS011;3828;48.922;9.116;2022-10-16T13:20:59;1.73;;;1.00;;
7573;SDS011;3828;48.922;9.116;2022-10-16T13:23:35;3.33;;;1.20;;
7573;SDS011;3828;48.922;9.116;2022-10-16T13:26:13;2.77;;;1.17;;
7573;SDS011;3828;48.922;9.116;2022-10-16T13:28:47;1.73;;;1.03;;
7573;SDS011;3828;48.922;9.116;2022-10-16T13:31:17;1.20;;;1.00;;
7573;SDS011;3828;48.922;9.116;2022-10-16T13:33:48;2.67;;;1.10;;
7573;SDS011;3828;48.922;9.116;2022-10-16T13:36:20;1.67;;;1.00;;
7573;SDS011;3828;48.922;9.116;2022-10-16T13:38:48;2.13;;;1.17;;
7573;SDS011;3828;48.922;9.116;2022-10-16T13:41:27;1.20;;;1.10;;
7573;SDS011;3828;48.922;9.116;2022-10-16T13:43:53;1.10;;;1.00;;
7573;SDS011;3828;48.922;9.116;2022-10-16T13:46:24;2.43;;;1.17;;
7573;SDS011;3828;48.922;9.116;2022-10-16T13:48:57;1.27;;;1.10;;
7573;SDS011;3828;48.922;9.116;2022-10-16T13:51:25;3.03;;;1.37;;
7573;SDS011;3828;48.922;9.116;2022-10-16T13:53:53;1.17;;;1.03;;
7573;SDS011;3828;48.922;9.116;2022-10-16T13:56:22;0.97;;;0.97;;
7573;SDS011;3828;48.922;9.116;2022-10-16T13:58:58;1.20;;;1.10;;
7573;SDS011;3828;48.922;9.116;2022-10-16T14:01:28;0.97;;;0.93;;
7573;SDS011;3828;48.922;9.116;2022-10-16T14:04:04;0.90;;;0.90;;
7573;SDS011;3828;48.922;9.116;2022-10-16T14:06:33;1.83;;;1.17;;
7573;SDS011;3828;48.922;9.116;2022-10-16T14:09:01;1.00;;;0.90;;
7573;SDS011;3828;48.922;9.116;2022-10-16T14:11:32;2.23;;;1.20;;
7573;SDS011;3828;48.922;9.116;2022-10-16T14:14:00;1.83;;;1.13;;
7573;SDS011;3828;48.922;9.116;2022-10-16T14:16:30;3.93;;;1.30;;
7573;SDS011;3828;48.922;9.116;2022-10-16T14:18:59;2.30;;;1.27;;
7573;SDS011;3828;48.922;9.116;2022-10-16T14:21:27;1.23;;;1.00;;
7573;SDS011;3828;48.922;9.116;2022-10-16T14:23:55;1.67;;;0.80;;
7573;SDS011;3828;48.922;9.116;2022-10-16T14:26:22;1.23;;;1.13;;
7573;SDS011;3828;48.922;9.116;2022-10-16T14:29:01;2.47;;;1.10;;
7573;SDS011;3828;48.922;9.116;2022-10-16T14:31:38;6.27;;;1.20;;
7573;SDS011;3828;48.922;9.116;2022-10-16T14:36:55;1.17;;;1.07;;
7573;SDS011;3828;48.922;9.116;2022-10-16T14:39:22;1.27;;;1.10;;
7573;SDS011;3828;48.922;9.116;2022-10-16T14:41:52;1.40;;;1.30;;
7573;SDS011;3828;48.922;9.116;2022-10-16T14:44:24;1.27;;;1.17;;
7573;SDS011;3828;48.922;9.116;2022-10-16T14:46:56;1.60;;;1.07;;
7573;SDS011;3828;48.922;9.116;2022-10-16T14:49:24;1.20;;;1.00;;
7573;SDS011;3828;48.922;9.116;2022-10-16T14:51:53;1.60;;;1.10;;
7573;SDS011;3828;48.922;9.116;2022-10-16T14:54:20;1.67;;;1.40;;
7573;SDS011;3828;48.922;9.116;2022-10-16T14:56:47;1.77;;;1.10;;
7573;SDS011;3828;48.922;9.116;2022-10-16T14:59:17;1.47;;;1.30;;
7573;SDS011;3828;48.922;9.116;2022-10-16T15:01:49;1.77;;;1.00;;
7573;SDS011;3828;48.922;9.116;2022-10-16T15:04:17;1.50;;;1.40;;
7573;SDS011;3828;48.922;9.116;2022-10-16T15:06:44;2.20;;;0.90;;
7573;SDS011;3828;48.922;9.116;2022-10-16T15:09:11;1.10;;;1.10;;
7573;SDS011;3828;48.922;9.116;2022-10-16T15:11:38;0.90;;;0.90;;
7573;SDS011;3828;48.922;9.116;2022-10-16T15:14:05;2.03;;;1.07;;
7573;SDS011;3828;48.922;9.116;2022-10-16T15:16:32;3.00;;;1.10;;
7573;SDS011;3828;48.922;9.116;2022-10-16T15:18:59;3.73;;;1.17;;
7573;SDS011;3828;48.922;9.116;2022-10-16T15:21:27;2.10;;;1.10;;
7573;SDS011;3828;48.922;9.116;2022-10-16T15:23:55;2.00;;;1.17;;
7573;SDS011;3828;48.922;9.116;2022-10-16T15:26:22;1.00;;;0.90;;
7573;SDS011;3828;48.922;9.116;2022-10-16T15:28:49;1.30;;;1.00;;
7573;SDS011;3828;48.922;9.116;2022-10-16T15:31:16;1.73;;;1.33;;
7573;SDS011;3828;48.922;9.116;2022-10-16T15:33:43;1.77;;;1.10;;
7573;SDS011;3828;48.922;9.116;2022-10-16T15:36:16;1.20;;;1.10;;
7573;SDS011;3828;48.922;9.116;2022-10-16T15:38:44;2.43;;;1.50;;
7573;SDS011;3828;48.922;9.116;2022-10-16T15:41:11;2.00;;;1.80;;
7573;SDS011;3828;48.922;9.116;2022-10-16T15:43:38;1.40;;;1.30;;
7573;SDS011;3828;48.922;9.116;2022-10-16T15:46:05;1.50;;;1.40;;